createdAt,value
2016-11-05T00:00:48.008Z,6.8
2016-11-05T00:01:49.449Z,6.8
2016-11-05T00:02:50.922Z,6.8
2016-11-05T00:03:52.863Z,6.8
2016-11-05T00:04:54.365Z,6.8
2016-11-05T00:05:55.807Z,6.8
2016-11-05T00:06:57.247Z,6.8
2016-11-05T00:07:59.189Z,6.8
2016-11-05T00:09:00.625Z,6.8
2016-11-05T00:10:02.062Z,6.8
2016-11-05T00:11:03.504Z,6.8
2016-11-05T00:12:05.447Z,6.8
2016-11-05T00:13:06.885Z,6.8
2016-11-05T00:14:08.325Z,6.8
2016-11-05T00:15:09.767Z,6.8
2016-11-05T00:17:13.114Z,6.8
2016-11-05T00:18:14.558Z,6.8
2016-11-05T00:19:16.502Z,6.8
2016-11-05T00:20:17.939Z,6.9
2016-11-05T00:22:20.779Z,6.8
2016-11-05T00:23:22.722Z,6.9
2016-11-05T00:24:24.160Z,6.9
2016-11-05T00:25:25.597Z,6.9
2016-11-05T00:26:27.541Z,6.9
2016-11-05T00:27:28.976Z,6.9
2016-11-05T00:28:30.418Z,6.9
2016-11-05T00:29:31.857Z,6.9
2016-11-05T00:30:33.796Z,6.9
2016-11-05T00:31:35.232Z,6.9
2016-11-05T00:33:38.577Z,6.9
2016-11-05T00:34:40.018Z,6.9
2016-11-05T00:35:41.459Z,6.9
2016-11-05T00:36:42.893Z,6.9
2016-11-05T00:37:44.842Z,6.9
2016-11-05T00:39:47.693Z,6.9
2016-11-05T00:40:49.632Z,6.9
2016-11-05T00:41:51.069Z,6.9
2016-11-05T00:42:52.642Z,6.9
2016-11-05T00:43:54.081Z,6.9
2016-11-05T00:44:55.527Z,6.9
2016-11-05T00:45:57.475Z,6.9
2016-11-05T00:48:00.312Z,6.9
2016-11-05T00:49:02.252Z,6.9
2016-11-05T00:50:03.685Z,6.9
2016-11-05T00:52:06.528Z,6.9
2016-11-05T00:53:08.467Z,6.9
2016-11-05T00:54:09.908Z,6.9
2016-11-05T00:55:11.350Z,6.9
2016-11-05T00:56:13.294Z,6.9
2016-11-05T00:57:14.732Z,6.9
2016-11-05T00:58:16.206Z,6.9
2016-11-05T00:59:17.647Z,6.9
2016-11-05T01:00:19.228Z,6.9
2016-11-05T01:01:21.175Z,6.9
2016-11-05T01:02:22.618Z,6.9
2016-11-05T01:04:25.460Z,6.9
2016-11-05T01:05:27.399Z,6.9
2016-11-05T01:06:28.839Z,6.9
2016-11-05T01:07:30.276Z,6.9
2016-11-05T01:08:31.711Z,6.9
2016-11-05T01:09:33.652Z,6.9
2016-11-05T01:10:35.086Z,6.9
2016-11-05T01:11:36.524Z,6.9
2016-11-05T01:12:38.473Z,6.9
2016-11-05T01:13:39.915Z,6.9
2016-11-05T01:14:41.354Z,6.9
2016-11-05T01:15:42.789Z,6.9
2016-11-05T01:16:44.733Z,6.9
2016-11-05T01:17:46.168Z,6.9
2016-11-05T01:18:47.608Z,6.9
2016-11-05T01:19:49.554Z,6.9
2016-11-05T01:20:50.995Z,6.9
2016-11-05T01:21:52.431Z,6.9
2016-11-05T01:22:53.874Z,6.9
2016-11-05T01:23:55.820Z,6.9
2016-11-05T01:24:57.263Z,6.9
2016-11-05T01:25:58.699Z,6.9
2016-11-05T01:27:00.141Z,6.9
2016-11-05T01:28:02.090Z,6.9
2016-11-05T01:30:05.066Z,6.9
2016-11-05T01:31:06.503Z,6.9
2016-11-05T01:33:09.850Z,6.9
2016-11-05T01:35:13.187Z,6.9
2016-11-05T01:36:14.625Z,6.9
2016-11-05T01:38:17.459Z,6.9
2016-11-05T01:39:19.399Z,6.9
2016-11-05T01:40:20.839Z,6.9
2016-11-05T01:41:22.272Z,6.9
2016-11-05T01:42:24.216Z,6.9
2016-11-05T01:43:25.515Z,6.9
2016-11-05T01:44:26.952Z,6.9
2016-11-05T01:45:28.892Z,6.9
2016-11-05T01:46:30.334Z,6.9
2016-11-05T01:47:31.773Z,7
2016-11-05T01:48:33.712Z,6.9
2016-11-05T01:49:35.149Z,7
2016-11-05T01:50:36.587Z,7
2016-11-05T01:51:38.027Z,7
2016-11-05T01:52:39.970Z,7
2016-11-05T01:53:41.405Z,7
2016-11-05T01:54:42.839Z,7
2016-11-05T01:55:44.271Z,7
2016-11-05T01:57:47.614Z,7
2016-11-05T01:58:49.054Z,7
2016-11-05T01:59:50.992Z,7
2016-11-05T02:00:52.438Z,7
2016-11-05T02:01:53.873Z,7
2016-11-05T02:02:55.811Z,7
2016-11-05T02:03:57.249Z,7
2016-11-05T02:04:58.689Z,7
2016-11-05T02:06:00.162Z,7
2016-11-05T02:07:02.142Z,7
2016-11-05T02:08:03.579Z,7
2016-11-05T02:09:05.024Z,7
2016-11-05T02:10:06.456Z,7
2016-11-05T02:11:08.398Z,7
2016-11-05T02:12:09.836Z,7
2016-11-05T02:13:11.275Z,7
2016-11-05T02:14:12.715Z,7
2016-11-05T02:15:14.656Z,7
2016-11-05T02:16:16.091Z,7
2016-11-05T02:17:17.526Z,7
2016-11-05T02:19:20.871Z,7
2016-11-05T02:20:22.308Z,7
2016-11-05T02:21:23.746Z,7
2016-11-05T02:22:25.689Z,7
2016-11-05T02:23:27.164Z,7
2016-11-05T02:24:28.605Z,7
2016-11-05T02:25:30.042Z,7
2016-11-05T02:26:31.991Z,7
2016-11-05T02:27:33.425Z,7
2016-11-05T02:28:34.861Z,7
2016-11-05T02:29:36.796Z,7
2016-11-05T02:30:38.241Z,7
2016-11-05T02:31:39.681Z,7
2016-11-05T02:32:41.129Z,7
2016-11-05T02:33:43.074Z,7
2016-11-05T02:34:44.513Z,7
2016-11-05T02:35:45.950Z,7
2016-11-05T02:37:49.302Z,7
2016-11-05T02:38:50.742Z,7
2016-11-05T02:39:52.179Z,7
2016-11-05T02:40:54.119Z,7
2016-11-05T02:41:55.554Z,7
2016-11-05T02:42:56.992Z,7
2016-11-05T02:43:58.933Z,7
2016-11-05T02:45:00.373Z,7
2016-11-05T02:46:01.818Z,7
2016-11-05T02:47:03.262Z,7
2016-11-05T02:48:05.204Z,7
2016-11-05T02:49:06.639Z,7
2016-11-05T02:50:08.078Z,7
2016-11-05T02:51:09.518Z,7
2016-11-05T02:52:11.461Z,7
2016-11-05T02:53:12.896Z,7
2016-11-05T02:54:14.334Z,7
2016-11-05T02:55:16.287Z,7
2016-11-05T02:56:17.729Z,7
2016-11-05T02:57:19.165Z,7
2016-11-05T02:58:20.600Z,7
2016-11-05T02:59:22.542Z,7
2016-11-05T03:00:23.980Z,7
2016-11-05T03:01:25.421Z,7
2016-11-05T03:03:28.769Z,7
2016-11-05T03:05:32.111Z,7.1
2016-11-05T03:06:33.553Z,7.1
2016-11-05T03:07:34.988Z,7.1
2016-11-05T03:08:36.422Z,7.1
2016-11-05T03:09:38.360Z,7.1
2016-11-05T03:10:39.793Z,7.1
2016-11-05T03:11:41.228Z,7.1
2016-11-05T03:12:43.168Z,7.1
2016-11-05T03:13:44.609Z,7.1
2016-11-05T03:14:46.051Z,7.1
2016-11-05T03:15:47.494Z,7.1
2016-11-05T03:16:49.435Z,7.1
2016-11-05T03:17:50.871Z,7.1
2016-11-05T03:18:52.313Z,7.1
2016-11-05T03:19:53.757Z,7.1
2016-11-05T03:20:55.703Z,7.1
2016-11-05T03:21:57.146Z,7.1
2016-11-05T03:22:58.588Z,7.1
2016-11-05T03:24:00.543Z,7.1
2016-11-05T03:25:01.994Z,7.1
2016-11-05T03:26:03.432Z,7.1
2016-11-05T03:28:06.444Z,7.1
2016-11-05T03:29:08.384Z,7.1
2016-11-05T03:30:09.822Z,7.1
2016-11-05T03:31:11.263Z,7.1
2016-11-05T03:32:13.210Z,7.1
2016-11-05T03:33:14.645Z,7.1
2016-11-05T03:34:16.088Z,7.1
2016-11-05T03:35:17.530Z,7.1
2016-11-05T03:37:20.867Z,7.1
2016-11-05T03:39:24.206Z,7.1
2016-11-05T03:40:25.638Z,7.1
2016-11-05T03:41:27.077Z,7.1
2016-11-05T03:42:29.026Z,7.1
2016-11-05T03:43:30.469Z,7.1
2016-11-05T03:45:33.533Z,7.1
2016-11-05T03:46:35.147Z,7.1
2016-11-05T03:47:36.583Z,7.1
2016-11-05T03:48:38.527Z,7.1
2016-11-05T03:50:41.367Z,7.1
2016-11-05T03:51:42.874Z,7.1
2016-11-05T03:52:44.822Z,7.1
2016-11-05T03:53:46.254Z,7.1
2016-11-05T03:54:47.696Z,7.1
2016-11-05T03:55:49.134Z,7.1
2016-11-05T03:56:51.082Z,7.1
2016-11-05T03:57:52.527Z,7.1
2016-11-05T03:58:53.959Z,7.1
2016-11-05T04:00:57.308Z,7.1
2016-11-05T04:01:58.746Z,7.2
2016-11-05T04:03:00.686Z,7.1
2016-11-05T04:04:02.121Z,7.1
2016-11-05T04:05:03.691Z,7.1
2016-11-05T04:06:05.125Z,7.2
2016-11-05T04:07:06.565Z,7.1
2016-11-05T04:08:08.511Z,7.2
2016-11-05T04:09:09.950Z,7.2
2016-11-05T04:10:11.389Z,7.2
2016-11-05T04:11:13.332Z,7.2
2016-11-05T04:13:16.176Z,7.2
2016-11-05T04:14:18.133Z,7.2
2016-11-05T04:15:19.569Z,7.2
2016-11-05T04:16:21.009Z,7.2
2016-11-05T04:17:22.449Z,7.2
2016-11-05T04:18:24.391Z,7.2
2016-11-05T04:19:25.828Z,7.2
2016-11-05T04:20:27.263Z,7.2
2016-11-05T04:21:29.208Z,7.2
2016-11-05T04:22:30.651Z,7.2
2016-11-05T04:23:32.090Z,7.2
2016-11-05T04:24:33.532Z,7.2
2016-11-05T04:26:36.881Z,7.2
2016-11-05T04:27:38.325Z,7.2
2016-11-05T04:28:40.269Z,7.2
2016-11-05T04:29:41.707Z,7.3
2016-11-05T04:31:45.045Z,7.3
2016-11-05T04:32:46.482Z,7.3
2016-11-05T04:33:47.920Z,7.3
2016-11-05T04:34:49.359Z,7.3
2016-11-05T04:35:51.295Z,7.3
2016-11-05T04:36:52.740Z,7.3
2016-11-05T04:37:54.180Z,7.3
2016-11-05T04:38:56.126Z,7.3
2016-11-05T04:39:57.565Z,7.3
2016-11-05T04:40:58.999Z,7.3
2016-11-05T04:42:00.441Z,7.3
2016-11-05T04:43:02.386Z,7.3
2016-11-05T04:44:03.819Z,7.3
2016-11-05T04:45:05.287Z,7.3
2016-11-05T04:46:07.234Z,7.3
2016-11-05T04:47:08.673Z,7.3
2016-11-05T04:48:10.115Z,7.3
2016-11-05T04:49:11.549Z,7.3
2016-11-05T04:50:13.494Z,7.3
2016-11-05T04:51:14.940Z,7.3
2016-11-05T04:52:16.378Z,7.3
2016-11-05T04:53:18.320Z,7.3
2016-11-05T04:54:19.755Z,7.3
2016-11-05T04:55:21.198Z,7.3
2016-11-05T04:57:24.543Z,7.4
2016-11-05T04:58:26.021Z,7.4
2016-11-05T04:59:27.496Z,7.4
2016-11-05T05:00:29.134Z,7.4
2016-11-05T05:01:31.077Z,7.4
2016-11-05T05:02:32.513Z,7.4
2016-11-05T05:03:33.951Z,7.4
2016-11-05T05:04:35.390Z,7.4
2016-11-05T05:05:37.333Z,7.4
2016-11-05T05:06:38.778Z,7.3
2016-11-05T05:07:40.214Z,7.3
2016-11-05T05:08:42.155Z,7.3
2016-11-05T05:09:43.596Z,7.3
2016-11-05T05:11:46.938Z,7.3
2016-11-05T05:12:48.376Z,7.3
2016-11-05T05:13:49.819Z,7.2
2016-11-05T05:14:51.259Z,7.2
2016-11-05T05:15:53.202Z,7.2
2016-11-05T05:16:54.639Z,7.2
2016-11-05T05:17:56.084Z,7.2
2016-11-05T05:18:58.027Z,7.2
2016-11-05T05:21:01.058Z,7.2
2016-11-05T05:22:02.497Z,7.2
2016-11-05T05:23:03.935Z,7.2
2016-11-05T05:25:07.281Z,7.2
2016-11-05T05:26:08.735Z,7.2
2016-11-05T05:27:10.685Z,7.2
2016-11-05T05:28:12.126Z,7.1
2016-11-05T05:29:13.563Z,7.1
2016-11-05T05:30:15.004Z,7.1
2016-11-05T05:31:16.949Z,7.1
2016-11-05T05:33:19.790Z,7.1
2016-11-05T05:34:21.732Z,7.1
2016-11-05T05:35:23.173Z,7.1
2016-11-05T05:36:24.614Z,7.1
2016-11-05T05:37:26.553Z,7.1
2016-11-05T05:38:27.987Z,7.1
2016-11-05T05:39:29.421Z,7.1
2016-11-05T05:40:30.863Z,7
2016-11-05T05:41:32.807Z,7.1
2016-11-05T05:43:35.646Z,7
2016-11-05T05:44:37.589Z,7.1
2016-11-05T05:45:39.030Z,7
2016-11-05T05:46:40.466Z,7
2016-11-05T05:47:41.907Z,7
2016-11-05T05:48:43.846Z,7
2016-11-05T05:49:45.287Z,7
2016-11-05T05:50:46.725Z,7
2016-11-05T05:51:48.663Z,7
2016-11-05T05:52:50.108Z,7
2016-11-05T05:53:51.550Z,7
2016-11-05T05:54:52.989Z,7
2016-11-05T05:55:54.926Z,7
2016-11-05T05:56:56.368Z,7
2016-11-05T05:57:57.801Z,7
2016-11-05T05:58:59.243Z,7
2016-11-05T06:00:01.192Z,7
2016-11-05T06:01:02.631Z,7
2016-11-05T06:03:06.029Z,7
2016-11-05T06:04:07.510Z,7
2016-11-05T06:06:10.349Z,7
2016-11-05T06:07:12.289Z,7
2016-11-05T06:08:13.730Z,7
2016-11-05T06:09:15.177Z,7
2016-11-05T06:10:16.991Z,7
2016-11-05T06:11:18.431Z,7
2016-11-05T06:12:19.900Z,7
2016-11-05T06:13:21.850Z,7
2016-11-05T06:14:23.294Z,7
2016-11-05T06:15:24.733Z,7
2016-11-05T06:16:26.166Z,7
2016-11-05T06:17:28.108Z,7
2016-11-05T06:18:29.546Z,7
2016-11-05T06:19:30.983Z,7
2016-11-05T06:20:32.431Z,7
2016-11-05T06:21:34.375Z,7
2016-11-05T06:22:35.877Z,7
2016-11-05T06:23:37.318Z,7
2016-11-05T06:24:38.755Z,7
2016-11-05T06:26:42.126Z,7
2016-11-05T06:27:43.562Z,7
2016-11-05T06:28:45.513Z,7
2016-11-05T06:29:46.947Z,7
2016-11-05T06:30:48.380Z,7
2016-11-05T06:31:49.818Z,7
2016-11-05T06:32:51.770Z,7
2016-11-05T06:33:53.206Z,7
2016-11-05T06:34:54.680Z,7
2016-11-05T06:35:56.120Z,7
2016-11-05T06:36:58.059Z,7
2016-11-05T06:39:00.902Z,7
2016-11-05T06:40:02.480Z,7
2016-11-05T06:41:04.433Z,7
2016-11-05T06:42:05.870Z,7
2016-11-05T06:43:07.312Z,7
2016-11-05T06:44:08.751Z,7
2016-11-05T06:45:10.695Z,7
2016-11-05T06:46:12.369Z,7
2016-11-05T06:47:13.809Z,7
2016-11-05T06:48:15.248Z,7
2016-11-05T06:49:16.688Z,7
2016-11-05T06:50:18.633Z,7
2016-11-05T06:51:20.074Z,7.1
2016-11-05T06:52:21.511Z,7
2016-11-05T06:53:22.954Z,7.1
2016-11-05T06:54:24.895Z,7.1
2016-11-05T06:56:27.738Z,7.1
2016-11-05T06:57:29.682Z,7.1
2016-11-05T06:58:31.122Z,7.1
2016-11-05T06:59:32.564Z,7.1
2016-11-05T07:00:33.999Z,7.1
2016-11-05T07:01:35.940Z,7.1
2016-11-05T07:02:37.374Z,7.1
2016-11-05T07:03:38.817Z,7.1
2016-11-05T07:04:40.755Z,7.1
2016-11-05T07:05:42.194Z,7.1
2016-11-05T07:06:43.628Z,7.1
2016-11-05T07:07:45.062Z,7.1
2016-11-05T07:08:47.011Z,7.1
2016-11-05T07:10:49.851Z,7.1
2016-11-05T07:11:51.792Z,7.1
2016-11-05T07:12:53.232Z,7.1
2016-11-05T07:13:54.675Z,7.1
2016-11-05T07:14:56.112Z,7.1
2016-11-05T07:15:58.059Z,7.2
2016-11-05T07:16:59.500Z,7.2
2016-11-05T07:18:00.939Z,7.2
2016-11-05T07:19:02.883Z,7.2
2016-11-05T07:20:04.321Z,7.2
2016-11-05T07:21:05.766Z,7.2
2016-11-05T07:22:07.203Z,7.2
2016-11-05T07:23:09.143Z,7.2
2016-11-05T07:24:10.580Z,7.2
2016-11-05T07:25:12.025Z,7.2
2016-11-05T07:26:13.971Z,7.2
2016-11-05T07:28:16.816Z,7.2
2016-11-05T07:29:18.301Z,7.2
2016-11-05T07:30:20.245Z,7.2
2016-11-05T07:31:21.693Z,7.2
2016-11-05T07:32:23.129Z,7.2
2016-11-05T07:33:25.073Z,7.2
2016-11-05T07:35:28.253Z,7.3
2016-11-05T07:36:29.693Z,7.3
2016-11-05T07:37:31.138Z,7.3
2016-11-05T07:38:32.576Z,7.3
2016-11-05T07:40:35.926Z,7.3
2016-11-05T07:41:37.364Z,7.3
2016-11-05T07:42:39.313Z,7.3
2016-11-05T07:43:40.749Z,7.3
2016-11-05T07:44:42.190Z,7.4
2016-11-05T07:45:43.632Z,7.4
2016-11-05T07:46:45.605Z,7.4
2016-11-05T07:47:47.143Z,7.4
2016-11-05T07:48:48.568Z,7.4
2016-11-05T07:49:50.019Z,7.4
2016-11-05T07:51:53.367Z,7.4
2016-11-05T07:52:54.810Z,7.5
2016-11-05T07:53:56.752Z,7.5
2016-11-05T07:54:58.199Z,7.5
2016-11-05T07:55:59.637Z,7.5
2016-11-05T07:57:01.081Z,7.5
2016-11-05T07:58:03.030Z,7.5
2016-11-05T07:59:04.469Z,7.5
2016-11-05T08:00:05.908Z,7.6
2016-11-05T08:01:07.849Z,7.6
2016-11-05T08:02:09.285Z,7.6
2016-11-05T08:03:10.727Z,7.6
2016-11-05T08:04:12.671Z,7.6
2016-11-05T08:05:14.113Z,7.7
2016-11-05T08:06:15.562Z,7.7
2016-11-05T08:07:16.999Z,7.7
2016-11-05T08:08:18.950Z,7.7
2016-11-05T08:09:20.389Z,7.8
2016-11-05T08:10:21.831Z,7.8
2016-11-05T08:11:23.794Z,7.8
2016-11-05T08:12:25.230Z,7.9
2016-11-05T08:13:26.675Z,7.9
2016-11-05T08:14:28.617Z,7.9
2016-11-05T08:16:31.458Z,8
2016-11-05T08:17:33.407Z,8
2016-11-05T08:18:34.981Z,8.1
2016-11-05T08:19:36.422Z,8.1
2016-11-05T08:20:37.865Z,8.2
2016-11-05T08:21:39.808Z,8.2
2016-11-05T08:22:41.255Z,8.3
2016-11-05T08:23:42.696Z,8.3
2016-11-05T08:24:44.641Z,8.3
2016-11-05T08:25:46.083Z,8.4
2016-11-05T08:26:47.521Z,8.4
2016-11-05T08:27:49.463Z,8.4
2016-11-05T08:28:50.905Z,8.4
2016-11-05T08:29:52.354Z,8.4
2016-11-05T08:30:54.364Z,8.5
2016-11-05T08:31:55.807Z,8.5
2016-11-05T08:32:57.246Z,8.5
2016-11-05T08:35:00.597Z,8.5
2016-11-05T08:36:02.036Z,8.5
2016-11-05T08:37:03.977Z,8.5
2016-11-05T08:38:05.412Z,8.5
2016-11-05T08:41:10.173Z,8.5
2016-11-05T08:43:13.723Z,8.5
2016-11-05T08:44:15.163Z,8.5
2016-11-05T08:45:16.608Z,8.5
2016-11-05T08:46:18.553Z,8.5
2016-11-05T08:47:19.998Z,8.5
2016-11-05T08:48:21.444Z,8.5
2016-11-05T08:50:24.802Z,8.6
2016-11-05T08:51:26.243Z,8.6
2016-11-05T08:52:28.188Z,8.6
2016-11-05T08:53:29.628Z,8.6
2016-11-05T08:54:31.070Z,8.6
2016-11-05T08:56:34.416Z,8.6
2016-11-05T08:57:36.362Z,8.7
2016-11-05T08:59:39.243Z,8.7
2016-11-05T09:00:41.192Z,8.7
2016-11-05T09:01:42.632Z,8.7
2016-11-05T09:02:44.074Z,8.8
2016-11-05T09:03:46.012Z,8.8
2016-11-05T09:04:47.448Z,8.8
2016-11-05T09:05:48.888Z,8.8
2016-11-05T09:06:50.844Z,8.9
2016-11-05T09:07:52.285Z,8.9
2016-11-05T09:08:54.236Z,8.9
2016-11-05T09:09:55.680Z,8.9
2016-11-05T09:10:57.120Z,8.9
2016-11-05T09:11:59.065Z,8.9
2016-11-05T09:14:01.919Z,8.9
2016-11-05T09:15:03.862Z,8.9
2016-11-05T09:16:05.305Z,8.9
2016-11-05T09:17:07.272Z,8.9
2016-11-05T09:19:10.125Z,8.9
2016-11-05T09:20:12.075Z,8.9
2016-11-05T09:21:13.524Z,8.9
2016-11-05T09:22:14.962Z,8.9
2016-11-05T09:23:16.971Z,8.9
2016-11-05T09:24:18.415Z,8.9
2016-11-05T09:25:19.855Z,9
2016-11-05T09:26:21.798Z,9
2016-11-05T09:27:23.239Z,9
2016-11-05T09:28:25.184Z,9
2016-11-05T09:29:26.629Z,9
2016-11-05T09:30:28.069Z,9
2016-11-05T09:31:30.020Z,9
2016-11-05T09:32:31.464Z,9.1
2016-11-05T09:33:32.907Z,9.1
2016-11-05T09:34:34.848Z,9.1
2016-11-05T09:35:36.289Z,9.1
2016-11-05T09:36:38.238Z,9.2
2016-11-05T09:37:39.677Z,9.2
2016-11-05T09:39:43.021Z,9.3
2016-11-05T09:40:44.461Z,9.3
2016-11-05T09:41:46.402Z,9.3
2016-11-05T09:42:47.837Z,9.4
2016-11-05T09:43:49.275Z,9.4
2016-11-05T09:44:51.250Z,9.4
2016-11-05T09:46:54.505Z,9.5
2016-11-05T09:47:56.200Z,9.5
2016-11-05T09:48:57.588Z,9.5
2016-11-05T09:49:59.475Z,9.6
2016-11-05T09:51:01.020Z,9.6
2016-11-05T09:52:02.564Z,9.7
2016-11-05T09:53:04.163Z,9.7
2016-11-05T09:54:06.104Z,9.7
2016-11-05T09:55:07.538Z,9.7
2016-11-05T09:57:10.889Z,9.8
2016-11-05T09:58:12.328Z,9.8
2016-11-05T09:59:14.282Z,9.8
2016-11-05T10:00:15.864Z,9.9
2016-11-05T10:01:17.308Z,9.9
2016-11-05T10:03:20.661Z,9.9
2016-11-05T10:04:22.606Z,9.9
2016-11-05T10:05:24.051Z,9.9
2016-11-05T10:06:25.625Z,9.9
2016-11-05T10:07:27.567Z,9.9
2016-11-05T10:08:29.016Z,9.9
2016-11-05T10:09:30.460Z,9.9
2016-11-05T10:10:32.407Z,9.9
2016-11-05T10:11:33.850Z,9.9
2016-11-05T10:12:35.792Z,9.9
2016-11-05T10:13:37.231Z,9.9
2016-11-05T10:14:39.243Z,9.9
2016-11-05T10:15:40.683Z,9.9
2016-11-05T10:16:42.126Z,9.9
2016-11-05T10:17:44.077Z,9.9
2016-11-05T10:18:45.515Z,9.9
2016-11-05T10:19:46.958Z,9.9
2016-11-05T10:20:49.029Z,9.9
2016-11-05T10:21:50.468Z,9.9
2016-11-05T10:22:52.413Z,9.9
2016-11-05T10:23:53.861Z,9.9
2016-11-05T10:24:55.444Z,9.8
2016-11-05T10:25:56.888Z,9.8
2016-11-05T10:26:58.833Z,9.8
2016-11-05T10:28:00.278Z,9.8
2016-11-05T10:29:02.221Z,9.8
2016-11-05T10:30:03.662Z,9.8
2016-11-05T10:31:05.607Z,9.8
2016-11-05T10:32:07.053Z,9.8
2016-11-05T10:33:08.527Z,9.8
2016-11-05T10:34:10.466Z,9.8
2016-11-05T10:35:11.911Z,9.8
2016-11-05T10:36:13.855Z,9.8
2016-11-05T10:37:15.292Z,9.7
2016-11-05T10:38:16.736Z,9.7
2016-11-05T10:39:18.694Z,9.7
2016-11-05T10:40:20.135Z,9.7
2016-11-05T10:41:22.104Z,9.7
2016-11-05T10:42:23.545Z,9.7
2016-11-05T10:43:25.493Z,9.7
2016-11-05T10:44:26.942Z,9.7
2016-11-05T10:45:28.384Z,9.7
2016-11-05T10:46:30.331Z,9.7
2016-11-05T10:47:31.806Z,9.7
2016-11-05T10:48:33.252Z,9.7
2016-11-05T10:49:35.195Z,9.7
2016-11-05T10:50:36.776Z,9.7
2016-11-05T10:52:40.138Z,9.7
2016-11-05T10:53:41.578Z,9.7
2016-11-05T10:55:45.053Z,9.7
2016-11-05T10:56:46.507Z,9.7
2016-11-05T10:57:48.590Z,9.7
2016-11-05T10:58:50.041Z,9.7
2016-11-05T10:59:51.483Z,9.7
2016-11-05T11:00:53.423Z,9.6
2016-11-05T11:01:54.865Z,9.6
2016-11-05T11:02:56.809Z,9.6
2016-11-05T11:03:58.254Z,9.6
2016-11-05T11:04:59.689Z,9.6
2016-11-05T11:07:03.042Z,9.6
2016-11-05T11:08:04.984Z,9.6
2016-11-05T11:09:06.433Z,9.5
2016-11-05T11:11:09.781Z,9.5
2016-11-05T11:12:11.233Z,9.5
2016-11-05T11:13:13.243Z,9.5
2016-11-05T11:14:14.718Z,9.5
2016-11-05T11:15:16.163Z,9.5
2016-11-05T11:16:18.112Z,9.5
2016-11-05T11:17:19.547Z,9.5
2016-11-05T11:18:21.486Z,9.5
2016-11-05T11:19:23.179Z,9.5
2016-11-05T11:20:24.621Z,9.5
2016-11-05T11:21:26.055Z,9.5
2016-11-05T11:22:27.998Z,9.5
2016-11-05T11:23:29.440Z,9.5
2016-11-05T11:24:31.381Z,9.5
2016-11-05T11:25:32.885Z,9.5
2016-11-05T11:26:34.322Z,9.5
2016-11-05T11:27:36.367Z,9.5
2016-11-05T11:28:37.809Z,9.5
2016-11-05T11:29:39.254Z,9.5
2016-11-05T11:30:41.195Z,9.5
2016-11-05T11:31:42.633Z,9.5
2016-11-05T11:32:44.577Z,9.5
2016-11-05T11:33:46.018Z,9.6
2016-11-05T11:34:47.458Z,9.5
2016-11-05T11:35:49.405Z,9.6
2016-11-05T11:36:50.842Z,9.6
2016-11-05T11:37:52.788Z,9.6
2016-11-05T11:38:54.364Z,9.6
2016-11-05T11:39:55.840Z,9.6
2016-11-05T11:40:57.363Z,9.6
2016-11-05T11:41:59.307Z,9.6
2016-11-05T11:43:00.752Z,9.6
2016-11-05T11:44:02.691Z,9.6
2016-11-05T11:45:04.133Z,9.6
2016-11-05T11:46:05.573Z,9.6
2016-11-05T11:47:07.515Z,9.6
2016-11-05T11:48:08.957Z,9.6
2016-11-05T11:49:10.936Z,9.7
2016-11-05T11:50:12.383Z,9.7
2016-11-05T11:51:13.821Z,9.6
2016-11-05T11:52:15.766Z,9.7
2016-11-05T11:53:17.209Z,9.7
2016-11-05T11:54:19.164Z,9.7
2016-11-05T11:55:20.820Z,9.7
2016-11-05T11:56:22.261Z,9.7
2016-11-05T11:57:23.693Z,9.7
2016-11-05T11:58:25.635Z,9.7
2016-11-05T11:59:27.075Z,9.7
2016-11-05T12:01:30.432Z,9.7
2016-11-05T12:02:32.438Z,9.7
2016-11-05T12:03:33.877Z,9.7
2016-11-05T12:04:35.327Z,9.7
2016-11-05T12:05:37.040Z,9.7
2016-11-05T12:07:40.389Z,9.7
2016-11-05T12:08:41.838Z,9.7
2016-11-05T12:09:43.782Z,9.7
2016-11-05T12:10:45.223Z,9.7
2016-11-05T12:11:47.162Z,9.7
2016-11-05T12:12:48.600Z,9.7
2016-11-05T12:14:51.945Z,9.7
2016-11-05T12:15:53.387Z,9.7
2016-11-05T12:16:55.342Z,9.7
2016-11-05T12:17:56.786Z,9.7
2016-11-05T12:18:58.722Z,9.7
2016-11-05T12:20:00.162Z,9.7
2016-11-05T12:22:03.514Z,9.7
2016-11-05T12:23:04.952Z,9.7
2016-11-05T12:24:06.894Z,9.7
2016-11-05T12:25:08.335Z,9.7
2016-11-05T12:26:10.287Z,9.7
2016-11-05T12:27:11.792Z,9.7
2016-11-05T12:28:13.231Z,9.6
2016-11-05T12:29:15.171Z,9.6
2016-11-05T12:30:16.611Z,9.6
2016-11-05T12:31:18.556Z,9.6
2016-11-05T12:32:19.996Z,9.6
2016-11-05T12:33:21.932Z,9.6
2016-11-05T12:34:23.376Z,9.6
2016-11-05T12:35:24.816Z,9.6
2016-11-05T12:36:26.756Z,9.6
2016-11-05T12:37:28.197Z,9.6
2016-11-05T12:39:31.537Z,9.6
2016-11-05T12:40:33.482Z,9.6
2016-11-05T12:41:34.919Z,9.6
2016-11-05T12:42:36.361Z,9.6
2016-11-05T12:43:38.317Z,9.6
2016-11-05T12:44:39.761Z,9.6
2016-11-05T12:45:41.710Z,9.6
2016-11-05T12:46:43.293Z,9.6
2016-11-05T12:47:44.732Z,9.6
2016-11-05T12:48:46.419Z,9.5
2016-11-05T12:49:47.863Z,9.6
2016-11-05T12:50:49.805Z,9.5
2016-11-05T12:53:54.554Z,9.5
2016-11-05T12:54:56.501Z,9.5
2016-11-05T12:55:57.943Z,9.5
2016-11-05T12:56:59.389Z,9.5
2016-11-05T12:58:01.331Z,9.5
2016-11-05T12:59:02.839Z,9.5
2016-11-05T13:00:04.780Z,9.5
2016-11-05T13:02:07.620Z,9.5
2016-11-05T13:03:09.596Z,9.5
2016-11-05T13:04:11.038Z,9.5
2016-11-05T13:06:14.392Z,9.5
2016-11-05T13:07:16.337Z,9.5
2016-11-05T13:08:17.783Z,9.5
2016-11-05T13:09:19.226Z,9.5
2016-11-05T13:10:21.175Z,9.5
2016-11-05T13:11:22.616Z,9.5
2016-11-05T13:12:24.565Z,9.5
2016-11-05T13:13:26.007Z,9.5
2016-11-05T13:14:27.447Z,9.5
2016-11-05T13:15:29.394Z,9.5
2016-11-05T13:16:30.831Z,9.5
2016-11-05T13:18:34.180Z,9.5
2016-11-05T13:19:35.625Z,9.5
2016-11-05T13:20:37.573Z,9.5
2016-11-05T13:21:39.016Z,9.5
2016-11-05T13:22:40.961Z,9.5
2016-11-05T13:23:42.410Z,9.5
2016-11-05T13:24:43.857Z,9.5
2016-11-05T13:25:45.799Z,9.5
2016-11-05T13:26:47.243Z,9.5
2016-11-05T13:27:49.190Z,9.4
2016-11-05T13:28:50.632Z,9.5
2016-11-05T13:29:52.077Z,9.5
2016-11-05T13:30:54.029Z,9.5
2016-11-05T13:31:55.473Z,9.5
2016-11-05T13:32:57.418Z,9.5
2016-11-05T13:33:58.856Z,9.5
2016-11-05T13:35:00.302Z,9.5
2016-11-05T13:36:02.249Z,9.5
2016-11-05T13:37:03.695Z,9.5
2016-11-05T13:38:05.640Z,9.4
2016-11-05T13:39:07.124Z,9.4
2016-11-05T13:40:08.562Z,9.4
2016-11-05T13:41:10.343Z,9.5
2016-11-05T13:43:13.694Z,9.5
2016-11-05T13:44:15.135Z,9.5
2016-11-05T13:46:18.481Z,9.4
2016-11-05T13:47:20.425Z,9.4
2016-11-05T13:48:21.870Z,9.4
2016-11-05T13:49:23.308Z,9.4
2016-11-05T13:50:25.255Z,9.4
2016-11-05T13:51:26.695Z,9.4
2016-11-05T13:52:28.642Z,9.4
2016-11-05T13:53:30.085Z,9.4
2016-11-05T13:54:31.529Z,9.4
2016-11-05T13:55:33.476Z,9.4
2016-11-05T13:56:34.916Z,9.4
2016-11-05T13:57:36.866Z,9.4
2016-11-05T13:58:38.303Z,9.4
2016-11-05T13:59:39.740Z,9.4
2016-11-05T14:00:41.680Z,9.4
2016-11-05T14:01:43.121Z,9.4
2016-11-05T14:04:48.444Z,9.4
2016-11-05T14:05:49.887Z,9.4
2016-11-05T14:06:51.332Z,9.4
2016-11-05T14:07:53.283Z,9.4
2016-11-05T14:09:56.634Z,9.4
2016-11-05T14:10:58.073Z,9.3
2016-11-05T14:11:59.516Z,9.3
2016-11-05T14:13:01.458Z,9.3
2016-11-05T14:14:02.906Z,9.3
2016-11-05T14:15:04.864Z,9.3
2016-11-05T14:16:06.307Z,9.3
2016-11-05T14:17:07.745Z,9.3
2016-11-05T14:18:09.759Z,9.3
2016-11-05T14:19:11.203Z,9.3
2016-11-05T14:20:12.640Z,9.3
2016-11-05T14:21:14.582Z,9.3
2016-11-05T14:22:16.036Z,9.3
2016-11-05T14:23:17.986Z,9.3
2016-11-05T14:24:19.427Z,9.3
2016-11-05T14:25:20.865Z,9.3
2016-11-05T14:27:24.209Z,9.3
2016-11-05T14:28:26.155Z,9.3
2016-11-05T14:29:27.598Z,9.3
2016-11-05T14:30:29.077Z,9.3
2016-11-05T14:32:32.423Z,9.3
2016-11-05T14:33:34.371Z,9.3
2016-11-05T14:34:35.813Z,9.3
2016-11-05T14:35:37.259Z,9.3
2016-11-05T14:36:39.234Z,9.3
2016-11-05T14:37:40.674Z,9.3
2016-11-05T14:38:42.114Z,9.3
2016-11-05T14:39:44.056Z,9.3
2016-11-05T14:40:45.495Z,9.3
2016-11-05T14:41:47.439Z,9.2
2016-11-05T14:42:48.883Z,9.3
2016-11-05T14:43:50.320Z,9.3
2016-11-05T14:44:52.262Z,9.2
2016-11-05T14:45:53.703Z,9.3
2016-11-05T14:47:57.054Z,9.3
2016-11-05T14:48:58.684Z,9.2
2016-11-05T14:50:00.633Z,9.2
2016-11-05T14:51:02.105Z,9.2
2016-11-05T14:52:03.542Z,9.2
2016-11-05T14:53:05.488Z,9.2
2016-11-05T14:54:06.933Z,9.2
2016-11-05T14:55:08.370Z,9.2
2016-11-05T14:56:10.306Z,9.2
2016-11-05T14:57:11.752Z,9.2
2016-11-05T14:58:13.703Z,9.2
2016-11-05T14:59:15.140Z,9.2
2016-11-05T15:00:16.579Z,9.2
2016-11-05T15:01:18.535Z,9.2
2016-11-05T15:02:19.977Z,9.2
2016-11-05T15:03:21.920Z,9.2
2016-11-05T15:04:23.365Z,9.2
2016-11-05T15:05:24.805Z,9.2
2016-11-05T15:07:28.157Z,9.2
2016-11-05T15:08:30.102Z,9.2
2016-11-05T15:09:31.545Z,9.2
2016-11-05T15:10:33.023Z,9.2
2016-11-05T15:11:34.964Z,9.2
2016-11-05T15:12:36.405Z,9.1
2016-11-05T15:13:37.848Z,9.1
2016-11-05T15:14:39.925Z,9.1
2016-11-05T15:15:41.368Z,9.1
2016-11-05T15:16:42.810Z,9.1
2016-11-05T15:17:44.756Z,9.1
2016-11-05T15:18:46.198Z,9.1
2016-11-05T15:19:47.641Z,9.1
2016-11-05T15:21:50.986Z,9.1
2016-11-05T15:22:52.937Z,9.1
2016-11-05T15:23:54.374Z,9.1
2016-11-05T15:24:55.817Z,9.1
2016-11-05T15:25:57.758Z,9.1
2016-11-05T15:26:59.196Z,9.1
2016-11-05T15:28:01.146Z,9.1
2016-11-05T15:30:04.001Z,9.1
2016-11-05T15:31:05.945Z,9.1
2016-11-05T15:32:07.391Z,9.1
2016-11-05T15:33:09.334Z,9
2016-11-05T15:34:10.774Z,9
2016-11-05T15:36:14.034Z,9
2016-11-05T15:39:18.820Z,9
2016-11-05T15:40:20.768Z,9
2016-11-05T15:41:22.207Z,9
2016-11-05T15:42:23.650Z,9
2016-11-05T15:43:25.587Z,9
2016-11-05T15:45:28.948Z,9